Time;durP1;ratioP1;P1;durP2;ratioP2;P2;SDS_P1;SDS_P2;PMS_P1;PMS_P2;Temp;Humidity;BMP_temperature;BMP_pressure;BME280_temperature;BME280_humidity;BME280_pressure;Samples;Min_cycle;Max_cycle;Signal;HPM_P1;HPM_P2
2020/12/19 00:00:21;;;;;;;16.92;10.38;;;;;;;-0.75;78.38;100786.50;5083971;28;20032;-52
2020/12/19 00:02:47;;;;;;;20.63;12.30;;;;;;;-0.72;78.15;100780.69;5083934;28;20029;-51
2020/12/19 00:05:13;;;;;;;19.20;12.68;;;;;;;-0.45;77.54;100780.09;5083826;28;20038;-52
2020/12/19 00:07:38;;;;;;;18.45;11.95;;;;;;;-0.57;77.71;100772.81;5083891;28;20030;-52
2020/12/19 00:10:05;;;;;;;17.77;11.57;;;;;;;-0.77;78.46;100782.16;5083713;28;20096;-52
2020/12/19 00:12:30;;;;;;;19.15;11.70;;;;;;;-0.87;78.65;100776.69;5083875;28;20024;-52
2020/12/19 00:14:56;;;;;;;22.63;12.40;;;;;;;-0.67;77.82;100774.13;5083994;28;20078;-52
2020/12/19 00:17:22;;;;;;;19.23;12.52;;;;;;;-0.63;78.53;100775.97;5084056;28;20044;-53
2020/12/19 00:19:47;;;;;;;17.38;11.40;;;;;;;-0.49;78.17;100768.03;5083930;28;20029;-52
2020/12/19 00:22:13;;;;;;;20.27;12.77;;;;;;;-0.64;77.99;100776.78;5083819;28;20024;-52
2020/12/19 00:24:39;;;;;;;17.08;11.18;;;;;;;-0.93;79.07;100766.22;5083818;28;20029;-52
2020/12/19 00:27:11;;;;;;;17.33;11.32;;;;;;;-0.77;79.40;100765.22;5083722;28;20092;-52
2020/12/19 00:29:38;;;;;;;19.38;12.50;;;;;;;-0.82;80.15;100771.78;5082905;28;20370;-52
2020/12/19 00:32:04;;;;;;;20.65;12.45;;;;;;;-0.79;80.73;100764.28;5083553;28;20070;-52
2020/12/19 00:34:30;;;;;;;19.13;12.30;;;;;;;-0.80;80.30;100766.75;5083693;28;20033;-53
2020/12/19 00:36:56;;;;;;;21.67;13.43;;;;;;;-0.80;80.42;100751.50;5083721;28;20037;-52
2020/12/19 00:39:21;;;;;;;18.85;11.88;;;;;;;-0.75;79.77;100770.38;5083632;28;20037;-52
2020/12/19 00:41:47;;;;;;;20.83;13.38;;;;;;;-0.75;81.28;100776.31;5069157;28;20033;-52
2020/12/19 00:44:13;;;;;;;20.77;12.60;;;;;;;-0.92;81.31;100764.59;5063285;28;20111;-52
2020/12/19 00:46:51;;;;;;;18.98;11.65;;;;;;;-0.88;82.04;100769.84;5063685;28;20096;-52
2020/12/19 00:49:17;;;;;;;19.10;13.00;;;;;;;-0.70;81.70;100771.41;5063264;28;20067;-53
2020/12/19 00:51:43;;;;;;;20.38;13.35;;;;;;;-0.68;81.87;100767.28;5077119;28;20060;-52
2020/12/19 00:54:09;;;;;;;15.23;9.65;;;;;;;-0.90;81.05;100761.31;5083307;28;20028;-53
2020/12/19 00:56:34;;;;;;;15.30;9.23;;;;;;;-0.90;81.65;100775.66;5083223;28;20092;-52
2020/12/19 00:59:00;;;;;;;19.13;12.52;;;;;;;-0.82;81.68;100770.94;5083305;28;20039;-51
2020/12/19 01:01:26;;;;;;;16.38;10.98;;;;;;;-0.76;83.04;100774.56;5071892;28;20025;-51
2020/12/19 01:03:57;;;;;;;18.20;10.90;;;;;;;-0.77;81.59;100777.94;5063158;28;20025;-52
2020/12/19 01:06:24;;;;;;;17.05;10.43;;;;;;;-0.98;82.26;100790.59;5063219;28;20057;-52
2020/12/19 01:08:54;;;;;;;15.88;10.77;;;;;;;-1.03;82.50;100771.72;5063017;28;20024;-52
2020/12/19 01:11:22;;;;;;;18.70;11.52;;;;;;;-0.87;82.75;100776.69;5073341;28;20313;-53
2020/12/19 01:13:49;;;;;;;14.50;10.15;;;;;;;-0.89;82.24;100772.34;5082935;28;20137;-52
2020/12/19 01:16:23;;;;;;;16.83;10.85;;;;;;;-0.98;82.26;100751.59;5083090;28;20051;-52
2020/12/19 01:18:50;;;;;;;13.93;9.55;;;;;;;-0.90;81.73;100758.75;5082986;28;20031;-52
2020/12/19 01:21:20;;;;;;;17.00;10.50;;;;;;;-1.47;82.79;100704.59;5073328;28;20021;-52
2020/12/19 01:23:47;;;;;;;18.08;10.90;;;;;;;-0.87;82.87;100760.53;5062816;28;20218;-52
2020/12/19 01:26:14;;;;;;;17.17;10.68;;;;;;;-0.90;82.18;100774.03;5062753;28;20031;-52
2020/12/19 01:28:40;;;;;;;19.30;11.25;;;;;;;-0.80;81.86;100762.53;5078969;28;20044;-52
2020/12/19 01:31:08;;;;;;;17.00;10.98;;;;;;;-0.95;83.19;100769.53;5082639;28;20028;-53
2020/12/19 01:33:35;;;;;;;17.77;11.25;;;;;;;-1.02;83.49;100782.78;5082831;28;20087;-52
2020/12/19 01:36:01;;;;;;;16.05;9.77;;;;;;;-1.27;83.53;100769.88;5082866;28;20036;-52
2020/12/19 01:38:27;;;;;;;14.90;10.05;;;;;;;-1.06;83.75;100777.53;5082751;28;20213;-52
2020/12/19 01:40:55;;;;;;;17.42;11.27;;;;;;;-1.24;83.46;100734.44;5076351;28;20035;-51
2020/12/19 01:43:21;;;;;;;18.58;11.38;;;;;;;-1.03;83.63;100775.97;5062844;28;20271;-51
2020/12/19 01:45:47;;;;;;;14.23;10.35;;;;;;;-0.85;83.12;100771.66;5078069;28;20045;-52
2020/12/19 01:48:27;;;;;;;13.73;8.60;;;;;;;-1.12;83.37;100769.66;5062529;28;20025;-51
2020/12/19 01:50:53;;;;;;;17.15;11.10;;;;;;;-0.96;84.10;100762.72;5068484;28;20028;-51
2020/12/19 01:53:20;;;;;;;15.85;10.93;;;;;;;-1.09;83.95;100753.69;5082762;28;20028;-52
2020/12/19 01:55:48;;;;;;;17.15;10.40;;;;;;;-1.06;83.84;100751.28;5081349;28;20086;-52
2020/12/19 01:58:14;;;;;;;14.10;9.43;;;;;;;-1.04;83.96;100757.31;5082714;28;20024;-52
2020/12/19 02:00:40;;;;;;;19.98;11.93;;;;;;;-0.76;83.21;100755.91;5078401;28;20029;-52
2020/12/19 02:03:06;;;;;;;15.13;9.95;;;;;;;-0.95;83.38;100739.03;5062440;28;20053;-52
2020/12/19 02:05:33;;;;;;;16.25;11.13;;;;;;;-0.98;83.74;100762.66;5062423;28;20039;-52
2020/12/19 02:08:01;;;;;;;15.80;10.10;;;;;;;-0.93;83.46;100750.13;5062632;28;20328;-52
2020/12/19 02:10:27;;;;;;;15.02;10.00;;;;;;;-1.03;83.03;100742.91;5064352;28;20025;-51
2020/12/19 02:12:52;;;;;;;17.60;11.20;;;;;;;-1.00;83.47;100746.44;5082634;28;20025;-52
2020/12/19 02:15:18;;;;;;;14.93;11.23;;;;;;;-0.89;83.57;100752.84;5082442;28;20330;-51
2020/12/19 02:17:43;;;;;;;14.40;9.52;;;;;;;-0.96;83.12;100753.41;5082261;28;20020;-51
2020/12/19 02:20:10;;;;;;;17.90;11.13;;;;;;;-0.84;83.34;100749.63;5082377;28;20099;-51
2020/12/19 02:22:36;;;;;;;14.98;10.15;;;;;;;-0.80;83.35;100749.81;5076754;28;20347;-52
2020/12/19 02:25:02;;;;;;;15.18;9.55;;;;;;;-1.00;83.58;100754.06;5082253;28;20321;-52
2020/12/19 02:27:28;;;;;;;15.45;9.90;;;;;;;-1.19;83.01;100754.09;5082397;28;20035;-52
2020/12/19 02:29:53;;;;;;;15.38;9.80;;;;;;;-1.17;83.37;100755.03;5082441;28;20054;-52
2020/12/19 02:32:19;;;;;;;16.75;9.73;;;;;;;-1.02;83.84;100757.38;5082213;28;20250;-52
2020/12/19 02:34:44;;;;;;;13.82;9.88;;;;;;;-1.06;83.53;100747.03;5082333;28;20028;-51
2020/12/19 02:37:10;;;;;;;14.48;9.40;;;;;;;-1.24;83.73;100752.22;5082059;28;20024;-52
2020/12/19 02:39:35;;;;;;;14.60;9.77;;;;;;;-1.23;84.67;100753.97;5082089;28;20028;-52
2020/12/19 02:42:01;;;;;;;13.93;9.27;;;;;;;-1.23;83.46;100755.63;5082207;28;20038;-52
2020/12/19 02:44:27;;;;;;;14.43;9.88;;;;;;;-1.10;83.76;100746.84;5082229;28;20040;-52
2020/12/19 02:46:52;;;;;;;14.10;9.88;;;;;;;-1.07;83.76;100754.59;5082017;28;20032;-51
2020/12/19 02:49:18;;;;;;;13.38;8.98;;;;;;;-1.22;83.94;100755.69;5082165;28;20252;-52
2020/12/19 02:51:44;;;;;;;10.23;6.13;;;;;;;-1.51;84.58;100745.91;5069869;28;20033;-52
2020/12/19 02:54:09;;;;;;;12.20;8.85;;;;;;;-1.35;84.59;100755.06;5065669;28;20061;-52
2020/12/19 02:56:35;;;;;;;13.98;9.70;;;;;;;-1.50;85.07;100740.03;5083135;28;20020;-52
2020/12/19 02:59:01;;;;;;;14.07;9.13;;;;;;;-1.39;84.71;100749.88;5085887;28;20320;-52
2020/12/19 03:04:29;;;;;;;16.63;9.93;;;;;;;-1.14;83.99;100742.44;5085601;28;20029;-53
2020/12/19 03:06:55;;;;;;;13.25;8.63;;;;;;;-1.32;83.90;100753.56;5085504;28;20020;-53
2020/12/19 03:09:20;;;;;;;13.60;8.68;;;;;;;-1.33;84.56;100748.41;5085466;28;20052;-52
2020/12/19 03:11:46;;;;;;;13.57;9.23;;;;;;;-1.23;83.46;100748.88;5072943;28;20025;-52
2020/12/19 03:14:12;;;;;;;15.48;9.82;;;;;;;-1.06;84.49;100736.03;5065333;28;20083;-52
2020/12/19 03:16:37;;;;;;;14.13;10.13;;;;;;;-1.06;84.53;100738.56;5065211;28;20021;-52
2020/12/19 03:19:03;;;;;;;13.32;9.43;;;;;;;-1.12;83.55;100738.31;5065175;28;20037;-51
2020/12/19 03:21:28;;;;;;;12.82;9.35;;;;;;;-1.10;83.64;100739.22;5074885;28;20033;-52
2020/12/19 03:23:54;;;;;;;12.93;8.98;;;;;;;-1.18;83.84;100748.19;5085050;28;20029;-51
2020/12/19 03:26:20;;;;;;;13.55;8.95;;;;;;;-1.17;83.92;100739.78;5085055;28;20024;-51
2020/12/19 03:28:45;;;;;;;10.80;7.28;;;;;;;-1.38;84.14;100740.59;5085028;28;20048;-51
2020/12/19 03:31:11;;;;;;;13.80;9.43;;;;;;;-1.29;84.22;100743.50;5084999;28;20032;-51
2020/12/19 03:33:36;;;;;;;12.98;9.38;;;;;;;-1.17;84.61;100733.00;5084898;28;20225;-52
2020/12/19 03:36:02;;;;;;;13.55;9.73;;;;;;;-1.22;84.28;100748.06;5084887;28;20043;-51
2020/12/19 03:38:28;;;;;;;12.40;9.38;;;;;;;-1.12;83.85;100745.94;5084921;28;20035;-50
2020/12/19 03:40:53;;;;;;;13.25;9.32;;;;;;;-1.14;83.71;100740.78;5080016;28;20029;-51
2020/12/19 03:43:19;;;;;;;14.50;8.88;;;;;;;-1.24;84.16;100746.25;5064819;28;20025;-51
2020/12/19 03:45:44;;;;;;;12.48;9.48;;;;;;;-1.38;84.61;100745.66;5064522;28;20057;-51
2020/12/19 03:48:10;;;;;;;12.50;8.38;;;;;;;-1.42;84.73;100739.56;5064642;28;20277;-51
2020/12/19 03:50:36;;;;;;;11.40;7.53;;;;;;;-1.44;85.14;100743.72;5066491;28;20025;-52
2020/12/19 03:53:01;;;;;;;13.48;9.93;;;;;;;-1.17;84.94;100745.72;5084492;28;20040;-52
2020/12/19 03:55:27;;;;;;;11.80;9.20;;;;;;;-1.07;83.86;100741.91;5084419;28;20029;-52
2020/12/19 03:57:52;;;;;;;12.95;9.27;;;;;;;-0.94;82.40;100743.28;5084698;28;20033;-52
2020/12/19 04:00:18;;;;;;;14.70;9.05;;;;;;;-1.14;83.56;100742.44;5084529;28;20300;-52
2020/12/19 04:02:43;;;;;;;12.10;8.27;;;;;;;-1.30;83.20;100746.00;5064518;28;20264;-52
2020/12/19 04:05:11;;;;;;;14.35;9.50;;;;;;;-1.03;83.15;100733.59;5064184;28;20100;-52
2020/12/19 04:07:38;;;;;;;13.02;9.48;;;;;;;-0.96;82.98;100747.47;5064223;28;20028;-52
2020/12/19 04:10:06;;;;;;;13.82;10.15;;;;;;;-1.38;83.83;100692.31;5073106;28;20020;-51
2020/12/19 04:12:33;;;;;;;11.90;9.35;;;;;;;-1.08;83.69;100742.72;5083980;28;20059;-51
2020/12/19 04:14:58;;;;;;;12.20;8.80;;;;;;;-1.05;83.04;100741.16;5084129;28;20313;-52
2020/12/19 04:17:24;;;;;;;12.05;9.55;;;;;;;-1.03;83.68;100746.31;5083962;28;20028;-52
2020/12/19 04:19:50;;;;;;;13.15;8.25;;;;;;;-1.46;83.27;100741.91;5083972;28;20293;-52
2020/12/19 04:22:16;;;;;;;11.52;8.57;;;;;;;-1.37;83.79;100737.22;5068175;28;20282;-51
2020/12/19 04:24:42;;;;;;;11.65;8.77;;;;;;;-1.48;84.41;100741.84;5063683;28;20040;-52
2020/12/19 04:27:08;;;;;;;11.55;9.02;;;;;;;-1.26;84.04;100741.09;5067257;28;20024;-51
2020/12/19 04:29:33;;;;;;;12.20;9.00;;;;;;;-1.31;84.04;100737.50;5083800;28;20024;-51
2020/12/19 04:31:59;;;;;;;10.40;7.63;;;;;;;-1.26;83.93;100745.34;5083439;28;20043;-52
2020/12/19 04:34:26;;;;;;;11.82;9.13;;;;;;;-1.06;82.91;100738.56;5083604;28;20067;-52
2020/12/19 04:36:52;;;;;;;12.63;9.98;;;;;;;-1.08;83.56;100730.03;5083748;28;20047;-51
2020/12/19 04:39:19;;;;;;;12.70;9.32;;;;;;;-0.91;82.84;100733.28;5083498;28;20033;-52
2020/12/19 04:41:46;;;;;;;11.55;9.10;;;;;;;-0.92;82.44;100729.84;5072394;28;20032;-52
2020/12/19 04:44:12;;;;;;;10.95;8.80;;;;;;;-1.24;83.33;100692.88;5062998;28;20053;-51
2020/12/19 04:46:41;;;;;;;12.45;8.98;;;;;;;-1.07;82.96;100714.81;5063378;28;20037;-52
2020/12/19 04:49:07;;;;;;;13.70;9.85;;;;;;;-0.80;82.93;100732.03;5063313;28;20048;-53
2020/12/19 04:51:34;;;;;;;15.25;10.07;;;;;;;-0.88;82.96;100735.94;5072236;28;20374;-53
2020/12/19 04:54:00;;;;;;;15.07;9.85;;;;;;;-0.85;82.10;100742.84;5083250;28;20056;-53
2020/12/19 04:56:28;;;;;;;13.65;9.93;;;;;;;-1.00;82.56;100754.06;5083109;28;20279;-51
2020/12/19 04:58:54;;;;;;;12.80;9.20;;;;;;;-1.06;82.86;100738.56;5083012;28;20025;-52
2020/12/19 05:01:21;;;;;;;15.60;11.48;;;;;;;-1.02;83.07;100734.50;5075691;28;20314;-52
2020/12/19 05:03:48;;;;;;;13.52;10.68;;;;;;;-1.08;82.73;100732.56;5063128;28;20021;-52
2020/12/19 05:06:17;;;;;;;14.02;11.18;;;;;;;-1.03;82.81;100750.53;5062667;28;20059;-53
2020/12/19 05:08:42;;;;;;;13.30;9.80;;;;;;;-1.03;82.55;100731.06;5062958;28;20095;-52
2020/12/19 05:11:08;;;;;;;13.60;8.55;;;;;;;-1.07;82.69;100741.91;5082860;28;20031;-52
2020/12/19 05:13:34;;;;;;;14.07;10.15;;;;;;;-1.05;82.52;100725.06;5082955;28;20056;-52
2020/12/19 05:15:59;;;;;;;18.08;11.07;;;;;;;-0.90;82.34;100735.88;5082466;28;20035;-52
2020/12/19 05:18:25;;;;;;;15.35;11.65;;;;;;;-0.87;82.62;100725.84;5082977;28;20100;-52
2020/12/19 05:20:52;;;;;;;15.32;11.25;;;;;;;-0.94;82.40;100728.03;5082704;28;20464;-52
2020/12/19 05:23:18;;;;;;;15.05;10.52;;;;;;;-0.92;82.25;100732.38;5082944;28;20091;-52
2020/12/19 05:25:44;;;;;;;13.55;10.05;;;;;;;-1.30;82.53;100680.78;5082671;28;20036;-52
2020/12/19 05:28:10;;;;;;;15.30;11.90;;;;;;;-0.89;82.79;100737.59;5082312;28;20046;-52
2020/12/19 05:30:35;;;;;;;15.00;11.40;;;;;;;-0.95;82.36;100739.88;5082100;28;20050;-52
2020/12/19 05:33:01;;;;;;;14.38;10.68;;;;;;;-0.98;82.05;100742.31;5082620;28;20034;-52
2020/12/19 05:35:27;;;;;;;11.50;8.55;;;;;;;-1.22;82.69;100745.53;5082463;28;20020;-51
2020/12/19 05:38:05;;;;;;;17.27;11.75;;;;;;;-1.03;82.45;100732.75;5082469;28;20059;-52
2020/12/19 05:40:32;;;;;;;16.23;11.13;;;;;;;-1.07;83.19;100741.91;5082631;28;20627;-52
2020/12/19 05:42:58;;;;;;;15.13;10.77;;;;;;;-1.10;82.57;100742.66;5062611;28;20025;-51
2020/12/19 05:45:25;;;;;;;14.07;10.75;;;;;;;-1.01;82.85;100747.25;5062544;28;20083;-53
2020/12/19 05:47:51;;;;;;;15.25;10.77;;;;;;;-1.06;83.01;100754.66;5062645;28;20033;-52
2020/12/19 05:50:19;;;;;;;16.85;11.55;;;;;;;-0.95;82.45;100741.56;5062294;28;20055;-52
2020/12/19 05:52:45;;;;;;;14.65;11.00;;;;;;;-1.19;83.09;100754.97;5069052;28;20333;-52
2020/12/19 05:55:18;;;;;;;14.48;11.02;;;;;;;-1.58;83.51;100681.28;5082092;28;20028;-53
2020/12/19 05:57:44;;;;;;;13.75;10.90;;;;;;;-1.27;83.87;100736.84;5081946;28;20020;-53
2020/12/19 06:00:12;;;;;;;16.92;11.55;;;;;;;-1.16;83.76;100749.16;5082454;28;20029;-53
2020/12/19 06:02:38;;;;;;;14.07;9.30;;;;;;;-1.50;83.93;100750.19;5082148;28;20024;-52
2020/12/19 06:05:06;;;;;;;17.67;11.98;;;;;;;-1.29;83.81;100766.38;5082129;28;20055;-54
2020/12/19 06:07:41;;;;;;;16.33;11.90;;;;;;;-1.26;83.66;100747.88;5081759;28;20041;-53
2020/12/19 06:10:09;;;;;;;18.35;12.27;;;;;;;-1.24;83.51;100770.00;5081711;28;20316;-52
2020/12/19 06:13:02;;;;;;;17.23;12.27;;;;;;;-1.53;83.60;100684.03;5081754;28;20097;-52
2020/12/19 06:15:36;;;;;;;;;;;;;;;-1.12;83.31;100758.66;5082364;28;20035;-53
2020/12/19 06:18:29;;;;;;;11.18;7.07;;;;;;;-1.78;83.38;100693.06;5081580;28;19920;-54
2020/12/19 06:20:55;;;;;;;9.45;6.85;;;;;;;-1.50;83.63;100751.06;5080550;28;20048;-51
2020/12/19 06:23:21;;;;;;;16.23;12.18;;;;;;;-1.19;83.81;100764.25;5080694;28;20041;-52
2020/12/19 06:25:48;;;;;;;17.23;12.35;;;;;;;-1.05;83.05;100758.97;5080507;28;20044;-53
2020/12/19 06:28:38;;;;;;;13.55;11.05;;;;;;;-1.12;83.38;100763.72;5083807;28;20056;-53
2020/12/19 06:31:31;;;;;;;13.85;10.32;;;;;;;-1.05;82.05;100751.34;5080858;28;20306;-53
2020/12/19 06:34:03;;;;;;;13.90;11.25;;;;;;;-1.14;82.03;100757.69;5064119;28;20326;-52
2020/12/19 06:36:30;;;;;;;12.45;9.48;;;;;;;-1.24;83.32;100775.09;5065843;28;20031;-52
2020/12/19 06:39:16;;;;;;;16.13;11.57;;;;;;;-0.90;83.45;100762.97;5065528;28;20025;-52
2020/12/19 06:41:55;;;;;;;12.43;9.85;;;;;;;-1.18;82.29;100751.63;5089388;28;20064;-53
2020/12/19 06:44:38;;;;;;;12.10;9.50;;;;;;;-1.28;82.04;100773.22;5085248;28;20408;-53
2020/12/19 06:47:19;;;;;;;13.70;10.30;;;;;;;-0.98;82.26;100770.28;5085651;28;20047;-54
2020/12/19 06:49:52;;;;;;;13.93;9.98;;;;;;;-1.13;82.69;100774.69;5085635;28;20032;-52
2020/12/19 06:52:21;;;;;;;9.88;7.93;;;;;;;-1.37;81.39;100728.75;5071668;28;20086;-52
2020/12/19 06:54:48;;;;;;;11.60;9.40;;;;;;;-0.96;81.58;100776.28;5065406;28;20040;-53
2020/12/19 06:57:27;;;;;;;11.35;8.40;;;;;;;-1.24;82.14;100785.25;5083023;28;20025;-53
2020/12/19 06:59:55;;;;;;;11.77;9.23;;;;;;;-1.16;81.50;100779.66;5085291;28;20325;-53
2020/12/19 07:02:25;;;;;;;11.40;9.20;;;;;;;-0.88;80.84;100782.56;5084846;28;20075;-53
2020/12/19 07:04:52;;;;;;;11.68;8.90;;;;;;;-0.83;80.80;100759.00;5085135;28;20360;-53
2020/12/19 07:07:25;;;;;;;11.20;8.13;;;;;;;-1.22;80.92;100776.00;5085108;28;20028;-52
2020/12/19 07:09:56;;;;;;;10.45;8.30;;;;;;;-1.11;81.36;100768.88;5085034;28;20036;-52
2020/12/19 07:12:36;;;;;;;13.02;9.25;;;;;;;-1.42;80.93;100710.78;5070809;28;20052;-52
2020/12/19 07:15:08;;;;;;;11.32;8.95;;;;;;;-1.35;81.37;100699.19;5064829;28;20198;-52
2020/12/19 07:17:45;;;;;;;10.82;8.15;;;;;;;-1.31;81.68;100722.28;5064892;28;20097;-52
2020/12/19 07:20:11;;;;;;;11.82;8.70;;;;;;;-0.89;81.37;100764.72;5064948;28;20067;-54
2020/12/19 07:22:37;;;;;;;11.55;9.27;;;;;;;-0.76;80.50;100755.91;5080730;28;20025;-54
2020/12/19 07:25:02;;;;;;;12.32;9.73;;;;;;;-0.59;80.30;100760.03;5084629;28;20032;-53
2020/12/19 07:27:28;;;;;;;15.23;8.45;;;;;;;-0.83;80.29;100764.09;5084744;28;20028;-54
2020/12/19 07:30:00;;;;;;;11.00;8.20;;;;;;;-1.00;81.57;100769.31;5084604;28;20325;-53
2020/12/19 07:32:27;;;;;;;10.32;8.38;;;;;;;-0.97;80.68;100773.66;5084605;28;20069;-54
2020/12/19 07:34:58;;;;;;;13.50;9.40;;;;;;;-1.03;81.69;100758.16;5084731;28;20310;-55
2020/12/19 07:37:24;;;;;;;12.57;8.30;;;;;;;-0.99;81.69;100767.66;5084466;28;20032;-54
2020/12/19 07:39:50;;;;;;;10.98;7.82;;;;;;;-1.08;81.21;100775.78;5084415;28;20314;-54
2020/12/19 07:42:16;;;;;;;10.85;7.78;;;;;;;-0.97;80.31;100769.47;5071760;28;20318;-54
2020/12/19 07:44:44;;;;;;;10.45;8.15;;;;;;;-0.92;80.85;100774.75;5064518;28;20330;-53
2020/12/19 07:47:12;;;;;;;10.68;8.57;;;;;;;-1.01;80.79;100756.53;5064745;28;20269;-53
2020/12/19 07:49:47;;;;;;;14.40;9.57;;;;;;;-1.07;80.96;100769.84;5064436;28;20025;-53
2020/12/19 07:52:15;;;;;;;10.40;8.38;;;;;;;-1.17;81.52;100785.50;5076600;28;20060;-52
2020/12/19 07:54:50;;;;;;;12.43;9.38;;;;;;;-1.06;81.00;100771.59;5084300;28;20099;-53
2020/12/19 07:57:16;;;;;;;10.65;8.90;;;;;;;-0.71;81.67;100769.72;5084272;28;20020;-53
2020/12/19 07:59:42;;;;;;;12.48;9.35;;;;;;;-0.78;80.09;100765.16;5083871;28;20325;-53
2020/12/19 08:02:11;;;;;;;10.25;8.35;;;;;;;-1.10;80.07;100746.84;5072485;28;20025;-54
2020/12/19 08:04:36;;;;;;;14.27;9.63;;;;;;;-0.87;80.61;100766.50;5063919;28;20025;-53
2020/12/19 08:07:02;;;;;;;13.02;9.15;;;;;;;-0.91;80.14;100766.31;5063873;28;20310;-54
2020/12/19 08:09:28;;;;;;;12.73;9.18;;;;;;;-0.84;80.03;100767.44;5078525;28;20028;-53
2020/12/19 08:12:01;;;;;;;10.45;8.55;;;;;;;-0.75;80.03;100771.25;5082652;28;20024;-54
2020/12/19 08:14:27;;;;;;;10.02;8.07;;;;;;;-0.73;79.81;100762.00;5083824;28;20255;-54
2020/12/19 08:16:54;;;;;;;10.18;8.70;;;;;;;-0.91;80.41;100768.88;5083770;28;20051;-54
2020/12/19 08:19:40;;;;;;;12.07;8.93;;;;;;;-1.06;80.20;100774.16;5083689;28;20028;-54
2020/12/19 08:22:06;;;;;;;10.88;8.50;;;;;;;-1.18;81.22;100783.78;5072673;28;20033;-54
2020/12/19 08:24:33;;;;;;;12.05;9.40;;;;;;;-0.80;80.11;100777.78;5063609;28;20086;-53
2020/12/19 08:27:29;;;;;;;10.27;7.75;;;;;;;-0.84;79.20;100786.13;5065476;28;20031;-54
2020/12/19 08:30:03;;;;;;;11.57;8.60;;;;;;;-1.03;79.76;100784.44;5083460;28;20066;-53
2020/12/19 08:32:30;;;;;;;12.93;9.23;;;;;;;-1.06;79.15;100787.72;5083205;28;20070;-54
2020/12/19 08:34:56;;;;;;;13.13;9.88;;;;;;;-1.17;81.09;100780.44;5083091;28;20020;-54
2020/12/19 08:37:22;;;;;;;12.02;8.55;;;;;;;-1.05;79.54;100783.53;5083285;28;20372;-54
2020/12/19 08:40:05;;;;;;;12.02;8.80;;;;;;;-1.64;78.97;100699.66;5081946;28;20057;-53
2020/12/19 08:42:33;;;;;;;9.35;8.25;;;;;;;-1.16;80.08;100777.97;5068818;28;20032;-54
2020/12/19 08:45:10;;;;;;;13.52;9.25;;;;;;;-0.95;79.54;100784.78;5062715;28;20041;-54
2020/12/19 08:47:39;;;;;;;14.30;9.13;;;;;;;-1.27;79.66;100723.25;5062996;28;20044;-54
2020/12/19 08:50:05;;;;;;;11.88;8.07;;;;;;;-1.10;79.49;100787.53;5061961;28;20322;-53
2020/12/19 08:52:31;;;;;;;16.55;10.07;;;;;;;-0.90;79.70;100790.94;5076538;28;20085;-53
2020/12/19 08:54:57;;;;;;;13.30;9.45;;;;;;;-0.84;78.87;100786.13;5098514;28;20130;-52
2020/12/19 08:57:33;;;;;;;11.27;8.63;;;;;;;-0.92;79.75;100790.88;5082748;28;20020;-55
2020/12/19 09:00:13;;;;;;;12.18;8.77;;;;;;;-1.02;78.93;100793.81;5082571;28;20043;-53
2020/12/19 09:02:41;;;;;;;13.98;8.88;;;;;;;-1.34;78.39;100711.09;5067628;28;20029;-53
2020/12/19 09:05:07;;;;;;;12.57;9.48;;;;;;;-1.22;79.22;100791.25;5062497;28;20024;-53
2020/12/19 09:07:33;;;;;;;13.82;9.18;;;;;;;-1.16;79.21;100784.72;5062467;28;20209;-52
2020/12/19 09:09:59;;;;;;;10.98;7.57;;;;;;;-1.41;79.64;100799.75;5062399;28;20309;-53
2020/12/19 09:12:24;;;;;;;13.05;10.27;;;;;;;-1.18;80.44;100787.19;5075233;28;20036;-54
2020/12/19 09:14:50;;;;;;;12.05;8.65;;;;;;;-1.13;79.61;100795.03;5082503;28;20040;-53
2020/12/19 09:17:29;;;;;;;12.68;8.70;;;;;;;-1.29;79.27;100794.34;5082261;28;20033;-51
2020/12/19 09:20:05;;;;;;;14.15;10.00;;;;;;;-1.57;79.22;100737.22;5082375;28;20031;-53
2020/12/19 09:22:33;;;;;;;12.95;9.43;;;;;;;-1.14;79.84;100794.16;5068511;28;20040;-52
2020/12/19 09:24:59;;;;;;;14.63;10.00;;;;;;;-1.05;79.54;100796.22;5062443;28;20032;-53
2020/12/19 09:27:25;;;;;;;15.60;10.13;;;;;;;-1.02;78.73;100787.88;5067926;28;20034;-53
2020/12/19 09:29:50;;;;;;;14.40;8.32;;;;;;;-1.62;79.56;100769.16;5082446;28;20032;-53
2020/12/19 09:32:16;;;;;;;16.05;10.18;;;;;;;-1.30;80.32;100787.50;5081253;28;20309;-54
2020/12/19 09:34:42;;;;;;;13.05;9.13;;;;;;;-1.15;79.62;100791.56;5082232;28;20029;-53
2020/12/19 09:37:07;;;;;;;14.02;9.73;;;;;;;-1.07;78.37;100788.53;5079030;28;20036;-54
2020/12/19 09:39:33;;;;;;;13.20;9.68;;;;;;;-0.87;78.77;100788.50;5061983;28;20218;-54
2020/12/19 09:41:59;;;;;;;16.58;10.27;;;;;;;-0.96;79.39;100785.59;5081132;28;20025;-53
2020/12/19 09:44:24;;;;;;;15.02;10.05;;;;;;;-0.92;78.53;100777.28;5082072;28;20259;-53
2020/12/19 09:46:50;;;;;;;12.52;8.88;;;;;;;-1.16;78.26;100775.41;5081871;28;20261;-54
2020/12/19 09:49:15;;;;;;;13.13;9.90;;;;;;;-1.17;78.84;100765.19;5080742;28;20250;-54
2020/12/19 09:51:41;;;;;;;14.45;9.88;;;;;;;-0.88;78.79;100769.84;5081730;28;20037;-54
2020/12/19 09:54:08;;;;;;;12.98;9.68;;;;;;;-0.90;78.32;100766.38;5081698;28;20020;-54
2020/12/19 09:56:40;;;;;;;137.68;81.32;;;;;;;-0.79;78.01;100769.38;5081670;28;20062;-56
2020/12/19 09:59:05;;;;;;;;;;;;;;;-0.82;78.17;100778.56;5082101;28;20028;-55
2020/12/19 10:01:31;;;;;;;15.95;10.18;;;;;;;-0.82;78.08;100783.66;5083097;28;19957;-54
2020/12/19 10:03:56;;;;;;;13.75;10.07;;;;;;;-0.90;77.76;100781.66;5085597;28;20173;-55
2020/12/19 10:06:22;;;;;;;14.65;9.70;;;;;;;-0.92;77.89;100775.59;5085580;28;20044;-54
2020/12/19 10:08:47;;;;;;;16.63;10.73;;;;;;;-1.03;78.33;100759.03;5085540;28;20067;-54
2020/12/19 10:11:13;;;;;;;16.23;10.50;;;;;;;-1.02;78.18;100781.09;5085525;28;20024;-55
2020/12/19 10:13:39;;;;;;;16.48;10.55;;;;;;;-1.10;77.88;100773.16;5085321;28;20020;-55
2020/12/19 10:16:05;;;;;;;15.23;10.60;;;;;;;-1.05;78.48;100770.81;5085314;28;20024;-54
2020/12/19 10:18:31;;;;;;;16.10;10.93;;;;;;;-1.05;78.47;100753.03;5082461;28;20275;-54
2020/12/19 10:20:57;;;;;;;14.90;10.57;;;;;;;-1.10;78.30;100762.09;5086714;28;20074;-54
2020/12/19 10:23:22;;;;;;;15.57;10.65;;;;;;;-1.13;78.45;100762.84;5085079;28;20280;-53
2020/12/19 10:25:48;;;;;;;16.10;10.18;;;;;;;-1.02;78.71;100752.28;5085304;28;20040;-54
2020/12/19 10:28:13;;;;;;;13.75;9.88;;;;;;;-1.03;77.88;100770.88;5085398;28;20020;-53
2020/12/19 10:30:39;;;;;;;15.00;10.50;;;;;;;-1.06;77.77;100753.81;5085242;28;20428;-53
2020/12/19 10:33:04;;;;;;;14.65;9.63;;;;;;;-1.28;77.98;100755.44;5085031;28;20052;-53
2020/12/19 10:35:30;;;;;;;15.15;10.45;;;;;;;-1.00;77.71;100759.16;5085029;28;20071;-54
2020/12/19 10:37:55;;;;;;;14.50;10.45;;;;;;;-1.07;77.59;100746.97;5085219;28;20040;-54
2020/12/19 10:40:21;;;;;;;13.65;10.20;;;;;;;-0.96;78.00;100755.94;5085217;28;20201;-55
2020/12/19 10:42:46;;;;;;;12.45;9.18;;;;;;;-1.12;77.59;100754.41;5085300;28;20032;-53
2020/12/19 10:45:12;;;;;;;15.68;10.38;;;;;;;-1.05;78.59;100761.50;5085361;28;20070;-53
2020/12/19 10:47:37;;;;;;;13.77;10.40;;;;;;;-0.96;77.77;100762.72;5085556;28;20032;-53
2020/12/19 10:50:04;;;;;;;13.95;10.50;;;;;;;-1.00;77.89;100756.59;5085390;28;20088;-54
2020/12/19 10:52:31;;;;;;;13.95;9.98;;;;;;;-1.09;77.45;100762.16;5072753;28;20033;-54
2020/12/19 10:54:56;;;;;;;16.33;9.88;;;;;;;-1.03;78.05;100759.03;5065432;28;20041;-53
2020/12/19 10:57:22;;;;;;;15.43;10.30;;;;;;;-1.18;77.76;100764.31;5065206;28;20028;-54
2020/12/19 10:59:47;;;;;;;14.43;10.48;;;;;;;-1.15;77.55;100772.09;5065129;28;20021;-54
2020/12/19 11:02:13;;;;;;;16.98;11.00;;;;;;;-1.10;77.94;100757.03;5074973;28;20032;-53
2020/12/19 11:04:38;;;;;;;14.07;10.80;;;;;;;-1.01;77.33;100754.91;5084900;28;20295;-53
2020/12/19 11:07:04;;;;;;;15.98;10.23;;;;;;;-0.98;77.66;100761.75;5084848;28;20090;-53
2020/12/19 11:09:30;;;;;;;18.20;10.20;;;;;;;-0.96;77.01;100766.09;5084770;28;20066;-53
2020/12/19 11:11:56;;;;;;;16.58;9.93;;;;;;;-1.21;78.19;100769.28;5077577;28;20226;-53
2020/12/19 11:14:22;;;;;;;15.23;10.55;;;;;;;-0.77;78.30;100770.31;5063940;28;20067;-55
2020/12/19 11:16:48;;;;;;;15.93;11.32;;;;;;;-0.74;76.81;100767.00;5069471;28;20028;-54
2020/12/19 11:19:14;;;;;;;16.88;10.32;;;;;;;-0.83;76.98;100761.56;5084201;28;20031;-54